CheckWX is a tool to help pilots better visualize weather data.  It is not intended as a substitute for an official pre-flight weather briefing.

09:09:45 UTC

KJKJ METAR
Moorhead Municipal Airport
Moorhead, Minnesota, USA
Current

15 mins ago

KJKJ 220855Z AUTO 08015G23KT 10SM -RA BKN026 BKN034 OVC050 08/06 A2965 RMK AO2 P0001
Observed
May-22 @ 08:55 UTC
Wind
  • 080° at 15 KTS
  • Gusting to 23 KTS
Visibility
10 SM
Flight Rules
MVFR
Conditions
Light Rain
Cloud Levels
  • Broken at 2,600' AGL
  • Broken at 3,400' AGL
  • Overcast at 5,000' AGL
Temperature
C / 46°F
Dewpoint
C / 43°F
Humidity
87%
Altimeter
29.65" Hg
Pressure
1004.02 hPa
Current Rain
0.01"
Previous

35 mins ago

KJKJ 220835Z AUTO 08018G21KT 10SM -RA SCT024 BKN032 OVC050 08/06 A2965 RMK AO2 P0001
Observed
May-22 @ 08:35 UTC
Wind
  • 080° at 18 KTS
  • Gusting to 21 KTS
Visibility
10 SM
Flight Rules
VFR
Conditions
Light Rain
Cloud Levels
  • Scattered at 2,400' AGL
  • Broken at 3,200' AGL
  • Overcast at 5,000' AGL
Temperature
C / 46°F
Dewpoint
C / 43°F
Humidity
87%
Altimeter
29.65" Hg
Pressure
1004.02 hPa
Current Rain
0.01"
Previous

54 mins ago

KJKJ 220816Z AUTO 08017G23KT 10SM -RA BKN024 BKN032 OVC050 08/06 A2966 RMK AO2 P0001
Observed
May-22 @ 08:16 UTC
Wind
  • 080° at 17 KTS
  • Gusting to 23 KTS
Visibility
10 SM
Flight Rules
MVFR
Conditions
Light Rain
Cloud Levels
  • Broken at 2,400' AGL
  • Broken at 3,200' AGL
  • Overcast at 5,000' AGL
Temperature
C / 46°F
Dewpoint
C / 43°F
Humidity
87%
Altimeter
29.66" Hg
Pressure
1004.42 hPa
Current Rain
0.01"